Time;durP1;ratioP1;P1;durP2;ratioP2;P2;SDS_P1;SDS_P2;PMS_P1;PMS_P2;Temp;Humidity;BMP_temperature;BMP_pressure;BME280_temperature;BME280_humidity;BME280_pressure;Samples;Min_cycle;Max_cycle;Signal;HPM_P1;HPM_P2
2023/05/06 00:01:23;;;;;;;220.90;35.90;;;;;;;;;;4986496;28;20448;-56
2023/05/06 00:03:49;;;;;;;374.43;43.50;;;;;;;;;;4985003;28;20976;-57
2023/05/06 00:06:14;;;;;;;225.63;39.72;;;;;;;;;;4991170;28;20297;-56
2023/05/06 00:08:40;;;;;;;199.80;37.20;;;;;;;;;;4985949;28;20164;-56
2023/05/06 00:11:05;;;;;;;206.02;40.83;;;;;;;;;;4983950;28;20129;-57
2023/05/06 00:13:30;;;;;;;191.73;25.77;;;;;;;;;;4984909;28;20026;-57
2023/05/06 00:15:56;;;;;;;223.85;29.52;;;;;;;;;;4983590;28;20091;-58
2023/05/06 00:18:22;;;;;;;237.60;34.28;;;;;;;;;;4988329;28;20436;-58
2023/05/06 00:20:47;;;;;;;207.32;34.60;;;;;;;;;;4985039;28;20053;-56
2023/05/06 00:23:13;;;;;;;215.73;37.28;;;;;;;;;;4984692;28;20041;-57
2023/05/06 00:25:38;;;;;;;205.83;40.10;;;;;;;;;;4990044;28;20130;-58
2023/05/06 00:28:03;;;;;;;239.30;35.50;;;;;;;;;;4992942;28;20722;-58
2023/05/06 00:30:29;;;;;;;215.90;37.38;;;;;;;;;;4989198;28;20045;-58
2023/05/06 00:32:54;;;;;;;201.48;35.80;;;;;;;;;;4987753;28;20798;-57
2023/05/06 00:35:20;;;;;;;208.10;36.88;;;;;;;;;;4986862;28;20572;-58
2023/05/06 00:37:45;;;;;;;179.95;41.22;;;;;;;;;;4987970;28;20544;-58
2023/05/06 00:40:11;;;;;;;227.75;45.45;;;;;;;;;;4989569;28;20038;-57
2023/05/06 00:42:36;;;;;;;299.33;48.17;;;;;;;;;;4988165;28;20014;-58
2023/05/06 00:45:01;;;;;;;226.02;46.00;;;;;;;;;;4987790;28;20470;-58
2023/05/06 00:47:26;;;;;;;244.63;47.10;;;;;;;;;;4986887;28;20026;-58
2023/05/06 00:49:52;;;;;;;268.77;49.78;;;;;;;;;;4986951;28;20507;-58
2023/05/06 00:52:17;;;;;;;209.47;47.10;;;;;;;;;;4995866;28;20133;-59
2023/05/06 00:54:43;;;;;;;274.98;50.55;;;;;;;;;;4988907;28;20265;-58
2023/05/06 00:57:08;;;;;;;234.43;49.85;;;;;;;;;;4988334;28;20042;-58
2023/05/06 00:59:34;;;;;;;245.30;50.07;;;;;;;;;;4986045;28;20149;-57
2023/05/06 01:01:59;;;;;;;295.27;52.83;;;;;;;;;;4988592;28;20297;-56
2023/05/06 01:04:27;;;;;;;169.57;21.33;;;;;;;;;;4988452;28;20103;-56
2023/05/06 01:06:53;;;;;;;185.82;25.35;;;;;;;;;;4986887;28;20066;-55
2023/05/06 01:09:18;;;;;;;220.53;37.27;;;;;;;;;;4991341;28;20107;-56
2023/05/06 01:11:43;;;;;;;177.52;40.55;;;;;;;;;;4989660;28;20670;-57
2023/05/06 01:14:35;;;;;;;237.10;40.20;;;;;;;;;;4990440;28;20038;-57
2023/05/06 01:17:02;;;;;;;220.13;41.83;;;;;;;;;;4994484;28;20077;-57
2023/05/06 01:19:40;;;;;;;245.27;43.65;;;;;;;;;;4988673;28;20029;-58
2023/05/06 01:22:06;;;;;;;206.75;46.03;;;;;;;;;;4988080;28;20073;-57
2023/05/06 01:24:38;;;;;;;253.55;49.40;;;;;;;;;;4991378;28;20113;-56
2023/05/06 01:27:03;;;;;;;;;;;;;;;;;;4987315;28;20042;-56
2023/05/06 01:29:29;;;;;;;257.85;51.55;;;;;;;;;;4985590;28;19917;-57
2023/05/06 01:31:58;;;;;;;217.77;50.17;;;;;;;;;;4986886;28;20048;-58
2023/05/06 01:34:30;;;;;;;265.20;52.63;;;;;;;;;;4989374;28;20105;-56
2023/05/06 01:36:56;;;;;;;;;;;;;;;;;;4987665;28;20053;-59
2023/05/06 01:39:25;;;;;;;249.80;54.15;;;;;;;;;;4989990;28;19909;-56
2023/05/06 01:41:52;;;;;;;278.73;54.53;;;;;;;;;;4971264;28;20083;-56
2023/05/06 01:44:19;;;;;;;244.52;55.03;;;;;;;;;;4986269;28;20111;-57
2023/05/06 01:46:45;;;;;;;258.83;53.83;;;;;;;;;;4987144;28;20042;-56
2023/05/06 01:49:10;;;;;;;246.00;51.63;;;;;;;;;;4987250;28;20029;-58
2023/05/06 01:51:36;;;;;;;247.38;53.33;;;;;;;;;;4987753;28;20039;-58
2023/05/06 01:54:01;;;;;;;274.90;53.92;;;;;;;;;;4987115;28;20038;-58
2023/05/06 01:56:29;;;;;;;229.23;54.53;;;;;;;;;;4986594;28;20072;-58
2023/05/06 01:58:54;;;;;;;249.88;58.92;;;;;;;;;;4987253;28;20083;-57
2023/05/06 02:01:19;;;;;;;284.25;59.03;;;;;;;;;;4989211;28;20053;-58
2023/05/06 02:03:45;;;;;;;289.20;57.73;;;;;;;;;;4988501;28;20022;-56
2023/05/06 02:06:10;;;;;;;271.80;57.00;;;;;;;;;;4986887;28;20303;-58
2023/05/06 02:08:35;;;;;;;253.23;54.40;;;;;;;;;;4985738;28;20033;-57
2023/05/06 02:11:00;;;;;;;277.97;57.20;;;;;;;;;;4988017;28;20266;-57
2023/05/06 02:13:25;;;;;;;319.63;58.93;;;;;;;;;;4989315;28;20268;-54
2023/05/06 02:15:52;;;;;;;239.90;54.37;;;;;;;;;;4988504;28;20322;-54
2023/05/06 02:18:17;;;;;;;265.00;52.88;;;;;;;;;;4985160;28;20253;-55
2023/05/06 02:20:43;;;;;;;310.07;59.87;;;;;;;;;;4985433;28;20034;-56
2023/05/06 02:23:08;;;;;;;282.07;60.20;;;;;;;;;;4987689;28;20261;-54
2023/05/06 02:25:33;;;;;;;283.40;61.43;;;;;;;;;;4985448;28;20253;-57
2023/05/06 02:27:58;;;;;;;270.17;58.73;;;;;;;;;;4988742;28;20265;-56
2023/05/06 02:30:23;;;;;;;262.80;61.88;;;;;;;;;;4984944;28;20264;-56
2023/05/06 02:32:49;;;;;;;287.10;62.90;;;;;;;;;;4975750;28;20031;-57
2023/05/06 02:35:14;;;;;;;244.63;56.87;;;;;;;;;;4985950;28;20045;-57
2023/05/06 02:37:39;;;;;;;291.85;63.67;;;;;;;;;;4985801;28;21117;-56
2023/05/06 02:40:05;;;;;;;293.63;64.67;;;;;;;;;;4986477;28;20068;-58
2023/05/06 02:42:31;;;;;;;284.05;64.45;;;;;;;;;;4986894;28;20817;-58
2023/05/06 02:44:56;;;;;;;282.80;65.63;;;;;;;;;;4984955;28;20403;-55
2023/05/06 02:47:21;;;;;;;271.27;65.37;;;;;;;;;;4985319;28;20030;-56
2023/05/06 02:49:46;;;;;;;273.27;66.50;;;;;;;;;;4987330;28;20304;-56
2023/05/06 02:52:11;;;;;;;298.63;68.37;;;;;;;;;;4985535;28;20280;-57
2023/05/06 02:54:37;;;;;;;275.98;67.63;;;;;;;;;;4990184;28;20273;-56
2023/05/06 02:57:02;;;;;;;289.53;67.40;;;;;;;;;;4990822;28;20039;-57
2023/05/06 02:59:27;;;;;;;345.38;71.72;;;;;;;;;;4986964;28;20354;-57
2023/05/06 03:01:52;;;;;;;299.50;68.65;;;;;;;;;;4985935;28;20070;-57
2023/05/06 03:04:18;;;;;;;283.20;70.07;;;;;;;;;;4985821;28;20026;-56
2023/05/06 03:06:43;;;;;;;274.17;70.93;;;;;;;;;;4987488;28;21058;-57
2023/05/06 03:09:08;;;;;;;264.43;69.90;;;;;;;;;;4989927;28;20790;-55
2023/05/06 03:11:34;;;;;;;330.73;72.90;;;;;;;;;;4984694;28;20270;-58
2023/05/06 03:13:59;;;;;;;320.88;74.47;;;;;;;;;;4988264;28;20038;-57
2023/05/06 03:16:25;;;;;;;263.13;63.15;;;;;;;;;;4991319;28;20065;-56
2023/05/06 03:18:50;;;;;;;255.15;63.75;;;;;;;;;;4976129;28;20065;-58
2023/05/06 03:21:15;;;;;;;276.53;65.20;;;;;;;;;;4985710;28;20616;-57
2023/05/06 03:23:40;;;;;;;316.48;64.28;;;;;;;;;;4986620;28;20681;-57
2023/05/06 03:26:06;;;;;;;293.93;63.83;;;;;;;;;;4983435;28;20168;-58
2023/05/06 03:28:31;;;;;;;245.75;63.10;;;;;;;;;;4988958;28;20935;-57
2023/05/06 03:30:56;;;;;;;289.60;65.33;;;;;;;;;;4986539;28;20034;-57
2023/05/06 03:33:22;;;;;;;262.27;62.13;;;;;;;;;;4988265;28;20269;-57
2023/05/06 03:35:47;;;;;;;274.80;68.03;;;;;;;;;;4984153;28;20285;-58
2023/05/06 03:38:12;;;;;;;320.13;72.00;;;;;;;;;;4987626;28;20047;-55
2023/05/06 03:40:37;;;;;;;271.13;71.27;;;;;;;;;;4986152;28;20053;-56
2023/05/06 03:43:03;;;;;;;303.55;73.90;;;;;;;;;;4986618;28;20262;-58
2023/05/06 03:45:28;;;;;;;352.23;76.10;;;;;;;;;;4983111;28;20121;-57
2023/05/06 03:47:53;;;;;;;296.60;73.55;;;;;;;;;;4985341;28;20249;-57
2023/05/06 03:50:18;;;;;;;307.40;75.30;;;;;;;;;;4984183;28;20094;-55
2023/05/06 03:52:44;;;;;;;314.13;76.87;;;;;;;;;;4989428;28;20368;-57
2023/05/06 03:55:10;;;;;;;280.25;75.55;;;;;;;;;;4984764;28;20269;-55
2023/05/06 03:57:35;;;;;;;362.42;80.85;;;;;;;;;;4985493;28;20033;-55
2023/05/06 04:00:00;;;;;;;319.10;79.40;;;;;;;;;;4985095;28;20867;-57
2023/05/06 04:02:25;;;;;;;321.50;80.07;;;;;;;;;;4985554;28;20038;-55
2023/05/06 04:04:51;;;;;;;320.73;77.50;;;;;;;;;;4988737;28;20289;-56
2023/05/06 04:07:16;;;;;;;272.60;75.23;;;;;;;;;;4985748;28;20472;-57
2023/05/06 04:09:41;;;;;;;270.73;74.93;;;;;;;;;;4986126;28;20250;-55
2023/05/06 04:12:06;;;;;;;326.03;79.17;;;;;;;;;;4985523;28;20285;-57
2023/05/06 04:14:31;;;;;;;322.73;80.33;;;;;;;;;;4985371;28;20262;-57
2023/05/06 04:16:57;;;;;;;316.63;78.97;;;;;;;;;;4984293;28;20283;-57
2023/05/06 04:19:22;;;;;;;298.67;77.97;;;;;;;;;;4984502;28;20261;-56
2023/05/06 04:21:47;;;;;;;284.20;78.60;;;;;;;;;;4984411;28;20046;-54
2023/05/06 04:24:14;;;;;;;297.20;80.60;;;;;;;;;;4985910;28;20261;-57
2023/05/06 04:26:40;;;;;;;321.98;82.38;;;;;;;;;;4985786;28;20035;-57
2023/05/06 04:29:05;;;;;;;279.48;72.35;;;;;;;;;;4988010;28;20023;-57
2023/05/06 04:31:31;;;;;;;322.02;67.40;;;;;;;;;;4985141;28;20041;-56
2023/05/06 04:33:56;;;;;;;274.23;69.93;;;;;;;;;;4988090;28;20030;-58
2023/05/06 04:36:22;;;;;;;298.37;75.37;;;;;;;;;;4984681;28;20030;-57
2023/05/06 04:38:48;;;;;;;280.17;73.22;;;;;;;;;;4986075;28;20265;-56
2023/05/06 04:41:14;;;;;;;263.90;75.03;;;;;;;;;;4985183;28;20034;-59
2023/05/06 04:43:40;;;;;;;377.42;81.53;;;;;;;;;;4988487;28;20118;-57
2023/05/06 04:46:05;;;;;;;327.40;80.88;;;;;;;;;;4986125;28;20125;-59
2023/05/06 04:48:30;;;;;;;326.52;81.97;;;;;;;;;;4984595;28;20035;-57
2023/05/06 04:50:56;;;;;;;337.05;81.95;;;;;;;;;;4988114;28;20073;-56
2023/05/06 04:53:21;;;;;;;319.77;83.40;;;;;;;;;;4987454;28;20106;-55
2023/05/06 04:55:46;;;;;;;314.92;81.70;;;;;;;;;;4984112;28;20045;-56
2023/05/06 04:58:11;;;;;;;316.10;81.67;;;;;;;;;;4984733;28;20459;-56
2023/05/06 05:00:37;;;;;;;307.67;79.33;;;;;;;;;;4985695;28;20312;-56
2023/05/06 05:03:02;;;;;;;364.05;80.50;;;;;;;;;;4987186;28;20264;-56
2023/05/06 05:05:27;;;;;;;424.15;70.53;;;;;;;;;;4976859;28;20634;-56
2023/05/06 05:07:53;;;;;;;343.27;71.40;;;;;;;;;;4984421;28;20030;-57
2023/05/06 05:10:18;;;;;;;380.23;77.07;;;;;;;;;;4978831;28;20173;-56
2023/05/06 05:12:45;;;;;;;418.50;79.13;;;;;;;;;;4984070;28;20050;-55
2023/05/06 05:15:10;;;;;;;406.30;80.13;;;;;;;;;;4988866;28;20014;-57
2023/05/06 05:17:36;;;;;;;435.25;82.35;;;;;;;;;;4985718;28;20349;-55
2023/05/06 05:20:02;;;;;;;388.98;81.18;;;;;;;;;;4984292;28;20037;-57
2023/05/06 05:22:27;;;;;;;450.25;86.30;;;;;;;;;;4981816;28;20037;-56
2023/05/06 05:24:52;;;;;;;359.20;81.70;;;;;;;;;;4984153;28;20118;-55
2023/05/06 05:27:17;;;;;;;434.77;86.13;;;;;;;;;;4983382;28;20277;-56
2023/05/06 05:29:42;;;;;;;418.83;89.75;;;;;;;;;;4984231;28;20025;-57
2023/05/06 05:32:08;;;;;;;398.50;86.23;;;;;;;;;;4983553;28;20087;-57
2023/05/06 05:34:33;;;;;;;431.17;79.35;;;;;;;;;;4986893;28;20261;-57
2023/05/06 05:36:58;;;;;;;435.37;84.57;;;;;;;;;;4985511;28;20038;-56
2023/05/06 05:39:24;;;;;;;426.77;88.67;;;;;;;;;;4984216;28;20289;-56
2023/05/06 05:41:49;;;;;;;409.02;89.15;;;;;;;;;;4982930;28;20972;-56
2023/05/06 05:44:14;;;;;;;391.50;88.00;;;;;;;;;;4987365;28;20519;-56
2023/05/06 05:46:40;;;;;;;351.27;86.05;;;;;;;;;;4984990;28;20753;-58
2023/05/06 05:49:05;;;;;;;437.42;84.95;;;;;;;;;;4983403;28;20026;-57
2023/05/06 05:51:31;;;;;;;339.23;83.83;;;;;;;;;;4973465;28;20198;-57
2023/05/06 05:53:56;;;;;;;348.20;84.43;;;;;;;;;;4989331;28;20374;-58
2023/05/06 05:56:21;;;;;;;330.92;82.95;;;;;;;;;;4987786;28;20046;-57
2023/05/06 05:58:46;;;;;;;302.63;83.70;;;;;;;;;;4986220;28;20076;-57
2023/05/06 06:01:12;;;;;;;460.20;88.00;;;;;;;;;;4980471;28;20289;-57
2023/05/06 06:03:37;;;;;;;455.90;88.63;;;;;;;;;;4985617;28;20133;-57
2023/05/06 06:06:02;;;;;;;427.10;79.82;;;;;;;;;;4981252;28;20042;-58
2023/05/06 06:08:28;;;;;;;397.67;79.43;;;;;;;;;;4972966;28;20018;-56
2023/05/06 06:10:54;;;;;;;393.83;77.28;;;;;;;;;;4987688;28;20663;-56
2023/05/06 06:13:19;;;;;;;351.70;75.13;;;;;;;;;;4984079;28;20029;-57
2023/05/06 06:15:45;;;;;;;460.10;82.20;;;;;;;;;;4983319;28;20033;-57
2023/05/06 06:18:10;;;;;;;435.77;82.20;;;;;;;;;;4982579;28;20330;-59
2023/05/06 06:20:35;;;;;;;380.33;80.35;;;;;;;;;;4985307;28;20136;-57
2023/05/06 06:23:01;;;;;;;372.67;78.95;;;;;;;;;;4986810;28;20022;-56
2023/05/06 06:25:26;;;;;;;307.48;72.00;;;;;;;;;;4985905;28;20070;-56
2023/05/06 06:27:53;;;;;;;664.20;85.33;;;;;;;;;;4985810;28;20061;-56
2023/05/06 06:30:18;;;;;;;334.95;74.97;;;;;;;;;;4984243;28;20631;-57
2023/05/06 06:32:50;;;;;;;319.10;75.65;;;;;;;;;;4982481;28;20034;-56
2023/05/06 06:35:15;;;;;;;337.33;75.10;;;;;;;;;;4981448;28;20390;-55
2023/05/06 06:37:41;;;;;;;334.60;76.20;;;;;;;;;;4986198;28;20014;-56
2023/05/06 06:40:07;;;;;;;316.13;75.23;;;;;;;;;;4984531;28;20022;-58
2023/05/06 06:42:32;;;;;;;275.20;69.43;;;;;;;;;;4984466;28;20037;-56
2023/05/06 06:44:57;;;;;;;292.83;70.43;;;;;;;;;;4981754;28;20018;-58
2023/05/06 06:47:22;;;;;;;387.73;65.67;;;;;;;;;;4981051;28;20033;-57
2023/05/06 06:49:48;;;;;;;320.70;64.82;;;;;;;;;;4968762;28;20046;-58
2023/05/06 06:52:13;;;;;;;337.50;63.63;;;;;;;;;;4985423;28;20649;-56
2023/05/06 06:54:38;;;;;;;340.73;60.67;;;;;;;;;;4982855;28;20408;-58
2023/05/06 06:57:04;;;;;;;324.17;61.80;;;;;;;;;;4986420;28;20349;-57
2023/05/06 06:59:30;;;;;;;378.65;65.10;;;;;;;;;;4987005;28;20132;-56
2023/05/06 07:01:55;;;;;;;377.73;66.22;;;;;;;;;;4981670;28;20045;-58
2023/05/06 07:04:20;;;;;;;368.77;64.73;;;;;;;;;;4984319;28;20029;-56
2023/05/06 07:06:45;;;;;;;377.53;67.30;;;;;;;;;;4983949;28;20034;-59
2023/05/06 07:09:12;;;;;;;277.88;62.28;;;;;;;;;;4984563;28;20266;-57
2023/05/06 07:11:37;;;;;;;263.05;63.38;;;;;;;;;;4983792;28;20030;-56
2023/05/06 07:14:02;;;;;;;237.97;50.47;;;;;;;;;;4985466;28;20442;-56
2023/05/06 07:16:27;;;;;;;266.53;38.30;;;;;;;;;;4982998;28;20191;-58
2023/05/06 07:18:53;;;;;;;322.87;50.83;;;;;;;;;;4998503;28;20264;-58
2023/05/06 07:21:18;;;;;;;291.90;55.17;;;;;;;;;;4999519;28;20062;-58
2023/05/06 07:23:43;;;;;;;306.55;56.63;;;;;;;;;;4995368;28;20049;-57
2023/05/06 07:26:08;;;;;;;329.83;59.20;;;;;;;;;;4992371;28;20038;-57
2023/05/06 07:28:34;;;;;;;258.57;56.33;;;;;;;;;;4997404;28;20030;-55
2023/05/06 07:30:59;;;;;;;260.25;56.70;;;;;;;;;;4999845;28;20443;-57
2023/05/06 07:33:24;;;;;;;296.48;54.20;;;;;;;;;;4998582;28;20608;-57
2023/05/06 07:35:51;;;;;;;251.93;51.17;;;;;;;;;;4997285;28;20041;-56
2023/05/06 07:38:16;;;;;;;228.25;49.97;;;;;;;;;;4999214;28;20348;-56
2023/05/06 07:40:41;;;;;;;175.37;46.33;;;;;;;;;;4998398;28;20058;-57
2023/05/06 07:43:07;;;;;;;233.73;42.60;;;;;;;;;;4995468;28;20121;-56
2023/05/06 07:45:32;;;;;;;231.73;31.20;;;;;;;;;;4982578;28;20045;-57
2023/05/06 07:47:57;;;;;;;161.38;26.58;;;;;;;;;;4980687;28;20034;-57
2023/05/06 07:50:23;;;;;;;214.20;35.30;;;;;;;;;;4980905;28;20392;-57
2023/05/06 07:52:48;;;;;;;215.90;40.30;;;;;;;;;;4983303;28;20483;-58
2023/05/06 07:55:13;;;;;;;239.60;37.63;;;;;;;;;;4984820;28;20620;-57
2023/05/06 07:57:38;;;;;;;196.10;36.33;;;;;;;;;;4999615;28;20422;-56
2023/05/06 08:00:04;;;;;;;235.33;39.93;;;;;;;;;;4994538;28;20930;-57
2023/05/06 08:02:30;;;;;;;236.10;43.75;;;;;;;;;;4979946;28;20045;-57
2023/05/06 08:04:56;;;;;;;242.95;37.55;;;;;;;;;;4982081;28;20030;-58
2023/05/06 08:07:21;;;;;;;351.33;47.42;;;;;;;;;;4974503;28;20053;-56
2023/05/06 08:09:46;;;;;;;239.93;34.58;;;;;;;;;;4981710;28;20201;-58
2023/05/06 08:12:11;;;;;;;314.23;36.70;;;;;;;;;;4979249;28;20075;-56
2023/05/06 08:14:37;;;;;;;271.03;45.47;;;;;;;;;;4983673;28;20272;-56
2023/05/06 08:17:02;;;;;;;286.20;41.92;;;;;;;;;;4982900;28;20290;-56
2023/05/06 08:19:28;;;;;;;263.50;37.72;;;;;;;;;;4980975;28;20068;-56
2023/05/06 08:21:53;;;;;;;249.73;29.27;;;;;;;;;;4985922;28;20026;-55
2023/05/06 08:24:18;;;;;;;222.53;24.77;;;;;;;;;;4986719;28;20029;-56
2023/05/06 08:26:44;;;;;;;175.20;17.20;;;;;;;;;;4984035;28;20057;-57
2023/05/06 08:29:09;;;;;;;135.07;9.53;;;;;;;;;;4985649;28;20083;-56
2023/05/06 08:31:34;;;;;;;203.97;11.23;;;;;;;;;;4981024;28;20696;-58
2023/05/06 08:34:00;;;;;;;231.32;11.88;;;;;;;;;;4981454;28;20857;-56
2023/05/06 08:36:25;;;;;;;260.63;13.50;;;;;;;;;;4981995;28;20114;-59
2023/05/06 08:38:50;;;;;;;276.13;13.27;;;;;;;;;;4979837;28;20109;-58
2023/05/06 08:41:20;;;;;;;257.80;12.67;;;;;;;;;;4982739;28;20300;-58
2023/05/06 08:43:45;;;;;;;335.23;16.92;;;;;;;;;;4982660;28;20354;-56
2023/05/06 08:46:11;;;;;;;247.48;11.98;;;;;;;;;;4984970;28;20127;-57
2023/05/06 08:48:36;;;;;;;250.88;11.90;;;;;;;;;;4987944;28;20435;-59
2023/05/06 08:51:02;;;;;;;259.80;11.65;;;;;;;;;;4985723;28;20042;-57
2023/05/06 08:53:28;;;;;;;264.75;11.02;;;;;;;;;;4986856;28;20029;-58
2023/05/06 08:55:53;;;;;;;217.45;9.80;;;;;;;;;;4987182;28;20034;-59
2023/05/06 08:58:20;;;;;;;273.52;12.27;;;;;;;;;;4984980;28;20026;-58
2023/05/06 09:00:45;;;;;;;240.48;11.52;;;;;;;;;;4984267;28;20038;-59
2023/05/06 09:03:10;;;;;;;247.63;11.38;;;;;;;;;;4986805;28;20033;-59
2023/05/06 09:05:35;;;;;;;261.83;12.00;;;;;;;;;;4984235;28;20062;-57
2023/05/06 09:08:01;;;;;;;128.80;7.80;;;;;;;;;;4985584;28;20037;-58
2023/05/06 09:10:46;;;;;;;225.18;9.35;;;;;;;;;;4978210;28;20277;-55
2023/05/06 09:13:12;;;;;;;244.50;10.20;;;;;;;;;;4982170;28;20026;-57
2023/05/06 09:15:47;;;;;;;235.13;10.48;;;;;;;;;;4986017;28;20262;-55
2023/05/06 09:18:13;;;;;;;218.23;9.80;;;;;;;;;;4985352;28;20046;-55
2023/05/06 09:20:43;;;;;;;229.65;10.15;;;;;;;;;;4981522;28;20457;-57
2023/05/06 09:23:08;;;;;;;159.48;8.77;;;;;;;;;;4986554;28;20030;-54
2023/05/06 09:25:34;;;;;;;200.07;10.48;;;;;;;;;;4983773;28;20815;-54
2023/05/06 09:28:04;;;;;;;206.35;10.85;;;;;;;;;;4983135;28;20071;-55
2023/05/06 09:30:29;;;;;;;195.95;11.77;;;;;;;;;;4984654;28;20199;-57
2023/05/06 09:32:54;;;;;;;247.20;14.32;;;;;;;;;;4985303;28;20142;-57
2023/05/06 09:35:20;;;;;;;251.75;15.40;;;;;;;;;;4985886;28;20916;-57
2023/05/06 09:37:45;;;;;;;176.97;18.37;;;;;;;;;;4984490;28;20086;-56
2023/05/06 09:40:11;;;;;;;233.45;21.40;;;;;;;;;;4980533;28;20285;-58
2023/05/06 09:42:36;;;;;;;183.27;17.95;;;;;;;;;;4983846;28;20120;-57
2023/05/06 09:45:01;;;;;;;251.85;21.70;;;;;;;;;;4982852;28;20022;-57
2023/05/06 09:47:31;;;;;;;308.65;23.58;;;;;;;;;;4987707;28;20038;-56
2023/05/06 09:49:58;;;;;;;228.40;25.92;;;;;;;;;;4984828;28;20049;-58
2023/05/06 09:52:23;;;;;;;278.70;33.58;;;;;;;;;;4982539;28;21092;-57
2023/05/06 09:54:50;;;;;;;272.17;33.28;;;;;;;;;;4983351;28;20018;-59
2023/05/06 09:57:15;;;;;;;374.23;38.72;;;;;;;;;;4985190;28;20045;-56
2023/05/06 09:59:42;;;;;;;290.65;35.78;;;;;;;;;;4985829;28;20030;-59
2023/05/06 10:02:07;;;;;;;219.63;12.63;;;;;;;;;;4984829;28;20097;-57
2023/05/06 10:04:34;;;;;;;277.63;18.02;;;;;;;;;;4985584;28;20659;-59
2023/05/06 10:07:00;;;;;;;294.17;22.98;;;;;;;;;;5018879;28;20030;-56
2023/05/06 10:09:25;;;;;;;362.08;25.55;;;;;;;;;;4982073;28;20438;-59
2023/05/06 10:11:52;;;;;;;325.80;28.05;;;;;;;;;;4986733;28;20081;-58
2023/05/06 10:14:17;;;;;;;249.77;29.77;;;;;;;;;;4984186;28;20053;-59
2023/05/06 10:16:43;;;;;;;237.30;27.17;;;;;;;;;;4986387;28;20673;-59
2023/05/06 10:19:09;;;;;;;186.85;9.45;;;;;;;;;;4985132;28;20105;-58
2023/05/06 10:21:37;;;;;;;195.32;15.75;;;;;;;;;;4986056;28;20371;-57
2023/05/06 10:24:06;;;;;;;272.63;22.33;;;;;;;;;;4984013;28;20060;-57
2023/05/06 10:26:33;;;;;;;210.95;20.88;;;;;;;;;;4982151;28;20068;-57
2023/05/06 10:29:00;;;;;;;265.83;20.05;;;;;;;;;;4982899;28;20026;-58
2023/05/06 10:31:26;;;;;;;250.10;18.88;;;;;;;;;;4983049;28;20531;-56
2023/05/06 10:33:53;;;;;;;286.77;18.45;;;;;;;;;;4986664;28;20491;-57
2023/05/06 10:36:20;;;;;;;257.05;17.10;;;;;;;;;;4980314;28;20043;-57
2023/05/06 10:38:48;;;;;;;242.90;17.88;;;;;;;;;;4986644;28;20647;-58
2023/05/06 10:41:14;;;;;;;301.92;19.92;;;;;;;;;;4981268;28;20328;-58
2023/05/06 10:43:42;;;;;;;240.77;16.88;;;;;;;;;;4981074;28;20528;-55
2023/05/06 10:46:12;;;;;;;259.25;10.93;;;;;;;;;;4979049;28;20073;-57
2023/05/06 10:48:38;;;;;;;259.05;10.27;;;;;;;;;;4981475;28;20580;-58
2023/05/06 10:51:30;;;;;;;249.38;10.88;;;;;;;;;;4981950;28;20034;-56
2023/05/06 10:54:01;;;;;;;280.25;12.60;;;;;;;;;;4979463;28;20396;-59
2023/05/06 10:56:26;;;;;;;289.90;10.10;;;;;;;;;;4985202;28;20042;-59
2023/05/06 10:58:52;;;;;;;275.73;10.05;;;;;;;;;;4984131;28;20420;-58
2023/05/06 11:01:22;;;;;;;289.95;11.40;;;;;;;;;;4979023;28;20138;-57
2023/05/06 11:03:48;;;;;;;399.52;14.02;;;;;;;;;;4984636;28;20030;-59
2023/05/06 11:06:30;;;;;;;248.15;9.40;;;;;;;;;;4985530;28;20069;-59
2023/05/06 11:08:57;;;;;;;229.25;8.30;;;;;;;;;;4987204;28;20583;-56
2023/05/06 11:11:41;;;;;;;163.82;7.13;;;;;;;;;;4980676;28;20038;-60
2023/05/06 11:14:12;;;;;;;261.67;9.23;;;;;;;;;;4982061;28;20104;-58
2023/05/06 11:16:50;;;;;;;197.85;7.88;;;;;;;;;;4985160;28;20832;-56
2023/05/06 11:19:20;;;;;;;200.57;7.85;;;;;;;;;;4984951;28;20113;-57
2023/05/06 11:21:45;;;;;;;230.55;8.63;;;;;;;;;;4981798;28;20070;-55
2023/05/06 11:24:11;;;;;;;233.63;9.00;;;;;;;;;;4984382;28;20274;-58
2023/05/06 11:26:38;;;;;;;185.98;7.75;;;;;;;;;;4982740;28;20262;-59
2023/05/06 11:29:04;;;;;;;213.77;8.20;;;;;;;;;;4977927;28;20830;-61
2023/05/06 11:31:36;;;;;;;233.77;9.18;;;;;;;;;;4982136;28;20042;-56
2023/05/06 11:34:03;;;;;;;266.83;9.57;;;;;;;;;;4980644;28;20499;-59
2023/05/06 11:36:29;;;;;;;285.92;10.10;;;;;;;;;;4981247;28;20057;-59
2023/05/06 11:38:58;;;;;;;263.98;9.60;;;;;;;;;;4981708;28;20026;-60
2023/05/06 11:41:23;;;;;;;270.80;10.02;;;;;;;;;;4979908;28;20030;-58
2023/05/06 11:43:49;;;;;;;410.43;13.97;;;;;;;;;;4984982;28;20030;-59
2023/05/06 11:46:15;;;;;;;254.05;9.45;;;;;;;;;;4981015;28;20296;-58
2023/05/06 11:48:42;;;;;;;277.05;10.45;;;;;;;;;;4983226;28;20124;-57
2023/05/06 11:51:07;;;;;;;221.35;9.23;;;;;;;;;;4981740;28;20052;-57
2023/05/06 11:53:32;;;;;;;202.27;8.63;;;;;;;;;;4982369;28;20030;-58
2023/05/06 11:55:57;;;;;;;292.67;11.33;;;;;;;;;;4980386;28;20207;-57
2023/05/06 11:58:27;;;;;;;306.47;11.90;;;;;;;;;;4977649;28;20281;-58
2023/05/06 12:00:54;;;;;;;289.48;10.73;;;;;;;;;;4979288;28;20114;-59
2023/05/06 12:03:20;;;;;;;259.75;9.50;;;;;;;;;;4982100;28;20033;-59
2023/05/06 12:05:47;;;;;;;261.15;10.00;;;;;;;;;;4985218;28;20018;-58
2023/05/06 12:08:13;;;;;;;308.15;10.93;;;;;;;;;;4981623;28;20150;-57
2023/05/06 12:10:39;;;;;;;269.90;10.77;;;;;;;;;;4979072;28;20026;-55
2023/05/06 12:13:05;;;;;;;281.05;10.98;;;;;;;;;;4979064;28;20034;-55
2023/05/06 12:15:30;;;;;;;245.95;8.40;;;;;;;;;;4981104;28;20128;-58
2023/05/06 12:17:56;;;;;;;279.23;9.88;;;;;;;;;;4980847;28;20738;-55
2023/05/06 12:20:21;;;;;;;229.38;9.25;;;;;;;;;;4984009;28;20040;-57
2023/05/06 12:23:03;;;;;;;203.03;9.13;;;;;;;;;;4988042;28;20090;-55
2023/05/06 12:25:28;;;;;;;286.80;12.20;;;;;;;;;;4980326;28;20030;-56
2023/05/06 12:27:53;;;;;;;372.55;14.85;;;;;;;;;;4979288;28;20314;-60
2023/05/06 12:30:31;;;;;;;287.57;13.93;;;;;;;;;;4981166;28;20097;-55
2023/05/06 12:32:57;;;;;;;214.93;10.85;;;;;;;;;;4985262;28;20326;-56
2023/05/06 12:35:29;;;;;;;216.02;11.07;;;;;;;;;;4987072;28;20033;-56
2023/05/06 12:37:54;;;;;;;;;;;;;;;;;;4971339;28;20030;-57
2023/05/06 12:40:19;;;;;;;194.75;17.58;;;;;;;;;;4985495;28;19959;-56
2023/05/06 12:42:51;;;;;;;175.52;16.83;;;;;;;;;;4984782;28;20018;-56
2023/05/06 12:45:17;;;;;;;226.00;18.88;;;;;;;;;;4985852;28;20034;-55
2023/05/06 12:47:52;;;;;;;235.50;23.35;;;;;;;;;;4984666;28;20018;-56
2023/05/06 12:50:30;;;;;;;295.83;28.45;;;;;;;;;;4987217;28;20759;-56
2023/05/06 12:52:56;;;;;;;272.80;30.02;;;;;;;;;;4991671;28;20721;-56
2023/05/06 12:55:22;;;;;;;243.10;28.97;;;;;;;;;;4985199;28;20671;-57
2023/05/06 12:57:48;;;;;;;232.27;29.00;;;;;;;;;;4985332;28;20261;-58
2023/05/06 13:00:13;;;;;;;397.08;35.97;;;;;;;;;;4979936;28;20056;-60
2023/05/06 13:02:40;;;;;;;250.52;33.78;;;;;;;;;;4985182;28;20041;-56
2023/05/06 13:05:05;;;;;;;233.80;34.08;;;;;;;;;;4986077;28;20023;-57
2023/05/06 13:07:30;;;;;;;239.88;35.78;;;;;;;;;;4985265;28;20087;-58
2023/05/06 13:09:56;;;;;;;345.67;38.90;;;;;;;;;;4984569;28;20076;-60
2023/05/06 13:12:21;;;;;;;322.58;35.78;;;;;;;;;;4981443;28;20268;-57
2023/05/06 13:14:46;;;;;;;287.07;30.50;;;;;;;;;;4987092;28;20037;-58
2023/05/06 13:17:13;;;;;;;277.83;29.47;;;;;;;;;;4986196;28;20516;-56
2023/05/06 13:19:38;;;;;;;340.05;36.53;;;;;;;;;;4984035;28;20057;-58
2023/05/06 13:22:04;;;;;;;325.90;33.28;;;;;;;;;;4983381;28;20121;-58
2023/05/06 13:24:29;;;;;;;351.02;37.72;;;;;;;;;;4986429;28;20097;-57
2023/05/06 13:26:55;;;;;;;352.83;40.40;;;;;;;;;;4982895;28;20039;-58
2023/05/06 13:29:22;;;;;;;318.70;42.67;;;;;;;;;;4980324;28;20052;-59
2023/05/06 13:31:47;;;;;;;363.52;58.78;;;;;;;;;;4982167;28;20596;-56
2023/05/06 13:34:12;;;;;;;309.70;43.90;;;;;;;;;;4987844;28;20038;-60
2023/05/06 13:36:37;;;;;;;274.40;42.47;;;;;;;;;;4982338;28;20076;-60
2023/05/06 13:39:03;;;;;;;282.88;42.58;;;;;;;;;;4986947;28;20038;-57
2023/05/06 13:41:28;;;;;;;284.27;45.25;;;;;;;;;;4982903;28;20532;-59
2023/05/06 13:43:53;;;;;;;380.97;50.30;;;;;;;;;;4985380;28;20125;-59
2023/05/06 13:46:19;;;;;;;252.93;46.78;;;;;;;;;;4985716;28;20266;-59
2023/05/06 13:48:44;;;;;;;218.23;35.22;;;;;;;;;;4984679;28;20127;-59
2023/05/06 13:51:09;;;;;;;197.37;35.80;;;;;;;;;;4987486;28;20043;-59
2023/05/06 13:53:34;;;;;;;240.70;38.23;;;;;;;;;;4983430;28;20030;-55
2023/05/06 13:56:00;;;;;;;218.65;39.50;;;;;;;;;;4983437;28;20042;-57
2023/05/06 13:58:25;;;;;;;325.88;30.27;;;;;;;;;;4979754;28;20033;-58
2023/05/06 14:00:50;;;;;;;205.20;31.25;;;;;;;;;;4980767;28;20046;-58